sensor_id;sensor_type;location;lat;lon;timestamp;P1;durP1;ratioP1;P2;durP2;ratioP2
64515;SDS011;50891;37.380;-122.076;2022-09-03T00:01:13;23.50;;;16.17;;
64515;SDS011;50891;37.380;-122.076;2022-09-03T00:03:48;23.98;;;16.20;;
64515;SDS011;50891;37.380;-122.076;2022-09-03T00:06:25;24.33;;;17.00;;
64515;SDS011;50891;37.380;-122.076;2022-09-03T00:09:00;25.00;;;16.92;;
64515;SDS011;50891;37.380;-122.076;2022-09-03T00:11:39;23.83;;;17.20;;
64515;SDS011;50891;37.380;-122.076;2022-09-03T00:14:11;23.42;;;16.55;;
64515;SDS011;50891;37.380;-122.076;2022-09-03T00:16:47;22.80;;;16.40;;
64515;SDS011;50891;37.380;-122.076;2022-09-03T00:19:17;23.25;;;16.30;;
64515;SDS011;50891;37.380;-122.076;2022-09-03T00:21:59;23.60;;;16.55;;
64515;SDS011;50891;37.380;-122.076;2022-09-03T00:24:33;23.67;;;16.65;;
64515;SDS011;50891;37.380;-122.076;2022-09-03T00:27:02;22.80;;;16.35;;
64515;SDS011;50891;37.380;-122.076;2022-09-03T00:29:40;23.05;;;16.50;;
64515;SDS011;50891;37.380;-122.076;2022-09-03T00:32:47;23.45;;;16.17;;
64515;SDS011;50891;37.380;-122.076;2022-09-03T00:35:17;22.60;;;17.02;;
64515;SDS011;50891;37.380;-122.076;2022-09-03T00:37:50;25.13;;;17.03;;
64515;SDS011;50891;37.380;-122.076;2022-09-03T00:43:34;22.65;;;16.17;;
64515;SDS011;50891;37.380;-122.076;2022-09-03T00:48:59;22.02;;;15.38;;
64515;SDS011;50891;37.380;-122.076;2022-09-03T01:10:45;23.30;;;15.20;;
64515;SDS011;50891;37.380;-122.076;2022-09-03T01:13:22;21.73;;;15.43;;
64515;SDS011;50891;37.380;-122.076;2022-09-03T01:19:03;23.08;;;14.98;;
64515;SDS011;50891;37.380;-122.076;2022-09-03T01:25:05;24.17;;;15.55;;
64515;SDS011;50891;37.380;-122.076;2022-09-03T01:27:58;22.88;;;14.95;;
64515;SDS011;50891;37.380;-122.076;2022-09-03T01:30:35;22.58;;;14.50;;
64515;SDS011;50891;37.380;-122.076;2022-09-03T01:33:17;23.05;;;15.75;;
64515;SDS011;50891;37.380;-122.076;2022-09-03T01:38:55;21.90;;;15.80;;
64515;SDS011;50891;37.380;-122.076;2022-09-03T01:41:35;23.25;;;15.75;;
64515;SDS011;50891;37.380;-122.076;2022-09-03T01:47:15;22.23;;;16.13;;
64515;SDS011;50891;37.380;-122.076;2022-09-03T01:58:06;23.83;;;16.15;;
64515;SDS011;50891;37.380;-122.076;2022-09-03T02:00:54;24.20;;;16.48;;
64515;SDS011;50891;37.380;-122.076;2022-09-03T02:03:32;22.83;;;16.75;;
64515;SDS011;50891;37.380;-122.076;2022-09-03T02:06:02;21.70;;;16.70;;
64515;SDS011;50891;37.380;-122.076;2022-09-03T02:08:31;24.92;;;16.92;;
64515;SDS011;50891;37.380;-122.076;2022-09-03T02:10:58;24.35;;;16.77;;
64515;SDS011;50891;37.380;-122.076;2022-09-03T02:16:27;25.20;;;16.73;;
64515;SDS011;50891;37.380;-122.076;2022-09-03T02:18:58;25.33;;;17.58;;
64515;SDS011;50891;37.380;-122.076;2022-09-03T02:21:33;25.27;;;17.60;;
64515;SDS011;50891;37.380;-122.076;2022-09-03T02:24:02;25.05;;;17.17;;
64515;SDS011;50891;37.380;-122.076;2022-09-03T02:26:30;25.13;;;17.15;;
64515;SDS011;50891;37.380;-122.076;2022-09-03T02:28:56;23.75;;;17.48;;
64515;SDS011;50891;37.380;-122.076;2022-09-03T02:31:22;25.98;;;18.20;;
64515;SDS011;50891;37.380;-122.076;2022-09-03T02:33:49;25.05;;;17.90;;
64515;SDS011;50891;37.380;-122.076;2022-09-03T02:36:17;25.58;;;17.92;;
64515;SDS011;50891;37.380;-122.076;2022-09-03T02:38:49;24.98;;;17.63;;
64515;SDS011;50891;37.380;-122.076;2022-09-03T02:41:15;25.87;;;17.63;;
64515;SDS011;50891;37.380;-122.076;2022-09-03T02:43:53;25.85;;;17.90;;
64515;SDS011;50891;37.380;-122.076;2022-09-03T02:46:44;26.13;;;18.23;;
64515;SDS011;50891;37.380;-122.076;2022-09-03T02:49:15;24.98;;;17.75;;
64515;SDS011;50891;37.380;-122.076;2022-09-03T02:51:41;25.83;;;18.08;;
64515;SDS011;50891;37.380;-122.076;2022-09-03T02:54:09;25.25;;;18.05;;
64515;SDS011;50891;37.380;-122.076;2022-09-03T02:56:36;24.70;;;18.23;;
64515;SDS011;50891;37.380;-122.076;2022-09-03T02:59:03;24.88;;;18.13;;
64515;SDS011;50891;37.380;-122.076;2022-09-03T03:01:31;23.80;;;17.90;;
64515;SDS011;50891;37.380;-122.076;2022-09-03T03:03:57;25.45;;;17.60;;
64515;SDS011;50891;37.380;-122.076;2022-09-03T03:06:24;25.73;;;18.20;;
64515;SDS011;50891;37.380;-122.076;2022-09-03T03:08:50;25.42;;;18.38;;
64515;SDS011;50891;37.380;-122.076;2022-09-03T03:11:21;24.40;;;17.23;;
64515;SDS011;50891;37.380;-122.076;2022-09-03T03:13:50;25.27;;;18.08;;
64515;SDS011;50891;37.380;-122.076;2022-09-03T03:16:17;24.70;;;17.20;;
64515;SDS011;50891;37.380;-122.076;2022-09-03T03:18:43;24.43;;;17.57;;
64515;SDS011;50891;37.380;-122.076;2022-09-03T03:21:13;23.88;;;17.60;;
64515;SDS011;50891;37.380;-122.076;2022-09-03T03:23:41;24.40;;;17.23;;
64515;SDS011;50891;37.380;-122.076;2022-09-03T03:26:08;23.80;;;17.15;;
64515;SDS011;50891;37.380;-122.076;2022-09-03T03:28:37;24.33;;;17.15;;
64515;SDS011;50891;37.380;-122.076;2022-09-03T03:33:39;24.15;;;17.30;;
64515;SDS011;50891;37.380;-122.076;2022-09-03T03:36:10;23.52;;;17.00;;
64515;SDS011;50891;37.380;-122.076;2022-09-03T03:38:38;23.17;;;16.80;;
64515;SDS011;50891;37.380;-122.076;2022-09-03T03:41:07;23.05;;;16.63;;
64515;SDS011;50891;37.380;-122.076;2022-09-03T03:43:34;23.40;;;16.15;;
64515;SDS011;50891;37.380;-122.076;2022-09-03T03:46:01;23.05;;;16.02;;
64515;SDS011;50891;37.380;-122.076;2022-09-03T03:48:27;21.33;;;15.80;;
64515;SDS011;50891;37.380;-122.076;2022-09-03T03:50:53;22.83;;;16.20;;
64515;SDS011;50891;37.380;-122.076;2022-09-03T03:53:20;23.60;;;16.48;;
64515;SDS011;50891;37.380;-122.076;2022-09-03T03:55:55;22.00;;;16.03;;
64515;SDS011;50891;37.380;-122.076;2022-09-03T03:58:23;22.77;;;16.27;;
64515;SDS011;50891;37.380;-122.076;2022-09-03T04:00:50;23.50;;;15.93;;
64515;SDS011;50891;37.380;-122.076;2022-09-03T04:03:17;22.00;;;15.88;;
64515;SDS011;50891;37.380;-122.076;2022-09-03T04:05:53;19.70;;;15.02;;
64515;SDS011;50891;37.380;-122.076;2022-09-03T04:08:24;21.15;;;15.18;;
64515;SDS011;50891;37.380;-122.076;2022-09-03T04:10:50;22.03;;;15.03;;
64515;SDS011;50891;37.380;-122.076;2022-09-03T04:13:16;21.20;;;14.65;;
64515;SDS011;50891;37.380;-122.076;2022-09-03T04:15:43;22.02;;;15.10;;
64515;SDS011;50891;37.380;-122.076;2022-09-03T04:18:09;21.05;;;14.63;;
64515;SDS011;50891;37.380;-122.076;2022-09-03T04:20:36;20.83;;;14.90;;
64515;SDS011;50891;37.380;-122.076;2022-09-03T04:23:03;19.90;;;14.50;;
64515;SDS011;50891;37.380;-122.076;2022-09-03T04:25:30;21.77;;;14.38;;
64515;SDS011;50891;37.380;-122.076;2022-09-03T04:27:56;19.60;;;14.27;;
64515;SDS011;50891;37.380;-122.076;2022-09-03T04:30:22;19.77;;;14.17;;
64515;SDS011;50891;37.380;-122.076;2022-09-03T04:32:49;19.70;;;13.93;;
64515;SDS011;50891;37.380;-122.076;2022-09-03T04:35:22;18.63;;;13.90;;
64515;SDS011;50891;37.380;-122.076;2022-09-03T04:37:50;19.35;;;13.85;;
64515;SDS011;50891;37.380;-122.076;2022-09-03T04:40:19;21.10;;;14.20;;
64515;SDS011;50891;37.380;-122.076;2022-09-03T04:42:45;18.98;;;13.10;;
64515;SDS011;50891;37.380;-122.076;2022-09-03T04:45:11;18.60;;;13.07;;
64515;SDS011;50891;37.380;-122.076;2022-09-03T04:47:43;19.42;;;13.40;;
64515;SDS011;50891;37.380;-122.076;2022-09-03T04:50:20;18.90;;;12.75;;
64515;SDS011;50891;37.380;-122.076;2022-09-03T04:52:47;19.25;;;13.13;;
64515;SDS011;50891;37.380;-122.076;2022-09-03T04:55:13;19.20;;;13.02;;
64515;SDS011;50891;37.380;-122.076;2022-09-03T04:57:41;19.30;;;13.10;;
64515;SDS011;50891;37.380;-122.076;2022-09-03T05:00:08;19.65;;;13.38;;
64515;SDS011;50891;37.380;-122.076;2022-09-03T05:02:36;18.75;;;12.15;;
64515;SDS011;50891;37.380;-122.076;2022-09-03T05:05:02;20.08;;;12.77;;
64515;SDS011;50891;37.380;-122.076;2022-09-03T05:07:29;17.63;;;12.27;;
64515;SDS011;50891;37.380;-122.076;2022-09-03T05:10:06;20.48;;;13.07;;
64515;SDS011;50891;37.380;-122.076;2022-09-03T05:12:34;18.70;;;12.80;;
64515;SDS011;50891;37.380;-122.076;2022-09-03T05:15:00;20.05;;;12.70;;
64515;SDS011;50891;37.380;-122.076;2022-09-03T05:17:29;18.33;;;12.43;;
64515;SDS011;50891;37.380;-122.076;2022-09-03T05:19:55;17.25;;;12.38;;
64515;SDS011;50891;37.380;-122.076;2022-09-03T05:22:22;18.45;;;12.73;;
64515;SDS011;50891;37.380;-122.076;2022-09-03T05:24:48;18.40;;;12.27;;
64515;SDS011;50891;37.380;-122.076;2022-09-03T05:27:15;17.73;;;12.75;;
64515;SDS011;50891;37.380;-122.076;2022-09-03T05:29:42;17.17;;;12.10;;
64515;SDS011;50891;37.380;-122.076;2022-09-03T05:32:09;18.08;;;12.50;;
64515;SDS011;50891;37.380;-122.076;2022-09-03T05:34:42;17.50;;;12.43;;
64515;SDS011;50891;37.380;-122.076;2022-09-03T05:37:09;18.27;;;12.32;;
64515;SDS011;50891;37.380;-122.076;2022-09-03T05:39:36;18.42;;;12.30;;
64515;SDS011;50891;37.380;-122.076;2022-09-03T05:42:03;19.05;;;12.40;;
64515;SDS011;50891;37.380;-122.076;2022-09-03T05:44:29;17.90;;;12.00;;
64515;SDS011;50891;37.380;-122.076;2022-09-03T05:46:55;17.53;;;12.07;;
64515;SDS011;50891;37.380;-122.076;2022-09-03T05:49:22;17.92;;;12.32;;
64515;SDS011;50891;37.380;-122.076;2022-09-03T05:51:48;18.77;;;12.40;;
64515;SDS011;50891;37.380;-122.076;2022-09-03T05:54:14;18.92;;;12.38;;
64515;SDS011;50891;37.380;-122.076;2022-09-03T05:56:40;18.42;;;12.18;;
64515;SDS011;50891;37.380;-122.076;2022-09-03T05:59:07;17.75;;;12.40;;
64515;SDS011;50891;37.380;-122.076;2022-09-03T06:01:35;19.13;;;12.43;;
64515;SDS011;50891;37.380;-122.076;2022-09-03T06:04:04;17.95;;;12.20;;
64515;SDS011;50891;37.380;-122.076;2022-09-03T06:06:36;18.05;;;12.15;;
64515;SDS011;50891;37.380;-122.076;2022-09-03T06:09:05;18.48;;;12.25;;
64515;SDS011;50891;37.380;-122.076;2022-09-03T06:11:33;17.63;;;12.70;;
64515;SDS011;50891;37.380;-122.076;2022-09-03T06:14:02;16.92;;;12.13;;
64515;SDS011;50891;37.380;-122.076;2022-09-03T06:16:31;17.92;;;12.70;;
64515;SDS011;50891;37.380;-122.076;2022-09-03T06:18:58;17.33;;;12.13;;
64515;SDS011;50891;37.380;-122.076;2022-09-03T06:21:25;18.10;;;12.57;;
64515;SDS011;50891;37.380;-122.076;2022-09-03T06:23:52;17.40;;;12.02;;
64515;SDS011;50891;37.380;-122.076;2022-09-03T06:26:23;18.48;;;11.95;;
64515;SDS011;50891;37.380;-122.076;2022-09-03T06:28:52;18.17;;;12.13;;
64515;SDS011;50891;37.380;-122.076;2022-09-03T06:31:19;17.17;;;12.23;;
64515;SDS011;50891;37.380;-122.076;2022-09-03T06:33:46;17.02;;;12.30;;
64515;SDS011;50891;37.380;-122.076;2022-09-03T06:36:17;17.73;;;11.65;;
64515;SDS011;50891;37.380;-122.076;2022-09-03T06:38:44;17.53;;;11.93;;
64515;SDS011;50891;37.380;-122.076;2022-09-03T06:41:12;18.02;;;11.73;;
64515;SDS011;50891;37.380;-122.076;2022-09-03T06:43:45;17.73;;;11.50;;
64515;SDS011;50891;37.380;-122.076;2022-09-03T06:46:14;16.45;;;11.25;;
64515;SDS011;50891;37.380;-122.076;2022-09-03T06:48:44;15.57;;;11.25;;
64515;SDS011;50891;37.380;-122.076;2022-09-03T06:51:12;15.98;;;10.68;;
64515;SDS011;50891;37.380;-122.076;2022-09-03T06:53:42;18.13;;;11.38;;
64515;SDS011;50891;37.380;-122.076;2022-09-03T06:56:11;17.50;;;11.20;;
64515;SDS011;50891;37.380;-122.076;2022-09-03T06:58:41;17.55;;;11.25;;
64515;SDS011;50891;37.380;-122.076;2022-09-03T07:01:12;18.23;;;11.23;;
64515;SDS011;50891;37.380;-122.076;2022-09-03T07:03:42;16.25;;;11.02;;
64515;SDS011;50891;37.380;-122.076;2022-09-03T07:06:10;17.17;;;11.30;;
64515;SDS011;50891;37.380;-122.076;2022-09-03T07:08:38;15.50;;;11.00;;
64515;SDS011;50891;37.380;-122.076;2022-09-03T07:11:06;15.40;;;10.45;;
64515;SDS011;50891;37.380;-122.076;2022-09-03T07:13:35;17.65;;;10.70;;
64515;SDS011;50891;37.380;-122.076;2022-09-03T07:16:05;15.77;;;10.60;;
64515;SDS011;50891;37.380;-122.076;2022-09-03T07:18:35;18.20;;;10.77;;
64515;SDS011;50891;37.380;-122.076;2022-09-03T07:21:03;17.73;;;10.70;;
64515;SDS011;50891;37.380;-122.076;2022-09-03T07:23:34;17.55;;;10.38;;
64515;SDS011;50891;37.380;-122.076;2022-09-03T07:26:12;20.33;;;11.13;;
64515;SDS011;50891;37.380;-122.076;2022-09-03T07:28:40;19.90;;;10.60;;
64515;SDS011;50891;37.380;-122.076;2022-09-03T07:31:09;20.38;;;10.23;;
64515;SDS011;50891;37.380;-122.076;2022-09-03T07:33:41;19.33;;;10.05;;
64515;SDS011;50891;37.380;-122.076;2022-09-03T07:36:09;16.80;;;9.57;;
64515;SDS011;50891;37.380;-122.076;2022-09-03T07:38:38;16.38;;;9.32;;
64515;SDS011;50891;37.380;-122.076;2022-09-03T07:41:07;17.70;;;9.55;;
64515;SDS011;50891;37.380;-122.076;2022-09-03T07:43:38;18.37;;;9.50;;
64515;SDS011;50891;37.380;-122.076;2022-09-03T07:46:07;17.13;;;9.60;;
64515;SDS011;50891;37.380;-122.076;2022-09-03T07:48:40;14.80;;;9.10;;
64515;SDS011;50891;37.380;-122.076;2022-09-03T07:51:07;17.25;;;9.10;;
64515;SDS011;50891;37.380;-122.076;2022-09-03T07:53:34;18.15;;;8.88;;
64515;SDS011;50891;37.380;-122.076;2022-09-03T07:56:02;15.20;;;8.55;;
64515;SDS011;50891;37.380;-122.076;2022-09-03T07:58:33;15.20;;;8.75;;
64515;SDS011;50891;37.380;-122.076;2022-09-03T08:01:07;14.80;;;8.50;;
64515;SDS011;50891;37.380;-122.076;2022-09-03T08:03:36;13.77;;;7.97;;
64515;SDS011;50891;37.380;-122.076;2022-09-03T08:06:04;15.32;;;8.35;;
64515;SDS011;50891;37.380;-122.076;2022-09-03T08:08:32;14.57;;;8.13;;
64515;SDS011;50891;37.380;-122.076;2022-09-03T08:11:07;14.32;;;8.30;;
64515;SDS011;50891;37.380;-122.076;2022-09-03T08:13:42;13.57;;;8.10;;
64515;SDS011;50891;37.380;-122.076;2022-09-03T08:16:31;15.30;;;8.43;;
64515;SDS011;50891;37.380;-122.076;2022-09-03T08:19:11;13.13;;;7.90;;
64515;SDS011;50891;37.380;-122.076;2022-09-03T08:21:39;15.23;;;7.90;;
64515;SDS011;50891;37.380;-122.076;2022-09-03T08:24:06;15.10;;;8.10;;
64515;SDS011;50891;37.380;-122.076;2022-09-03T08:26:34;12.60;;;7.90;;
64515;SDS011;50891;37.380;-122.076;2022-09-03T08:29:03;14.70;;;8.00;;
64515;SDS011;50891;37.380;-122.076;2022-09-03T08:31:30;14.10;;;8.07;;
64515;SDS011;50891;37.380;-122.076;2022-09-03T08:33:58;14.40;;;8.20;;
64515;SDS011;50891;37.380;-122.076;2022-09-03T08:36:29;14.65;;;7.93;;
64515;SDS011;50891;37.380;-122.076;2022-09-03T08:38:56;15.10;;;7.70;;
64515;SDS011;50891;37.380;-122.076;2022-09-03T08:44:18;15.15;;;8.05;;
64515;SDS011;50891;37.380;-122.076;2022-09-03T08:46:54;15.02;;;8.07;;
64515;SDS011;50891;37.380;-122.076;2022-09-03T08:49:47;13.07;;;7.60;;
64515;SDS011;50891;37.380;-122.076;2022-09-03T08:55:25;14.25;;;7.70;;
64515;SDS011;50891;37.380;-122.076;2022-09-03T08:58:17;15.13;;;7.65;;
64515;SDS011;50891;37.380;-122.076;2022-09-03T09:06:49;12.27;;;7.32;;
64515;SDS011;50891;37.380;-122.076;2022-09-03T09:15:29;14.37;;;7.47;;
64515;SDS011;50891;37.380;-122.076;2022-09-03T09:18:06;13.85;;;7.50;;
64515;SDS011;50891;37.380;-122.076;2022-09-03T09:23:04;12.07;;;7.20;;
64515;SDS011;50891;37.380;-122.076;2022-09-03T09:25:33;13.30;;;7.53;;
64515;SDS011;50891;37.380;-122.076;2022-09-03T09:28:18;14.43;;;7.63;;
64515;SDS011;50891;37.380;-122.076;2022-09-03T09:30:47;13.10;;;7.10;;
64515;SDS011;50891;37.380;-122.076;2022-09-03T09:33:16;14.82;;;7.50;;
64515;SDS011;50891;37.380;-122.076;2022-09-03T09:35:45;11.15;;;7.20;;
64515;SDS011;50891;37.380;-122.076;2022-09-03T09:38:12;13.00;;;7.20;;
64515;SDS011;50891;37.380;-122.076;2022-09-03T09:40:42;11.90;;;7.37;;
64515;SDS011;50891;37.380;-122.076;2022-09-03T09:43:11;13.20;;;7.50;;
64515;SDS011;50891;37.380;-122.076;2022-09-03T09:45:41;12.90;;;7.35;;
64515;SDS011;50891;37.380;-122.076;2022-09-03T09:48:12;13.45;;;7.60;;
64515;SDS011;50891;37.380;-122.076;2022-09-03T09:53:43;12.70;;;7.35;;
64515;SDS011;50891;37.380;-122.076;2022-09-03T09:56:22;13.07;;;7.25;;
64515;SDS011;50891;37.380;-122.076;2022-09-03T09:59:00;12.75;;;7.60;;
64515;SDS011;50891;37.380;-122.076;2022-09-03T10:01:28;14.57;;;7.87;;
64515;SDS011;50891;37.380;-122.076;2022-09-03T10:03:59;12.40;;;7.53;;
64515;SDS011;50891;37.380;-122.076;2022-09-03T10:06:52;11.45;;;7.22;;
64515;SDS011;50891;37.380;-122.076;2022-09-03T10:09:25;13.95;;;7.45;;
64515;SDS011;50891;37.380;-122.076;2022-09-03T10:15:04;12.10;;;7.72;;
64515;SDS011;50891;37.380;-122.076;2022-09-03T10:17:51;12.55;;;7.60;;
64515;SDS011;50891;37.380;-122.076;2022-09-03T10:20:23;11.20;;;7.60;;
64515;SDS011;50891;37.380;-122.076;2022-09-03T10:23:23;13.13;;;7.90;;
64515;SDS011;50891;37.380;-122.076;2022-09-03T10:26:07;13.07;;;7.87;;
64515;SDS011;50891;37.380;-122.076;2022-09-03T10:28:37;11.32;;;7.35;;
64515;SDS011;50891;37.380;-122.076;2022-09-03T10:39:21;12.75;;;7.70;;
64515;SDS011;50891;37.380;-122.076;2022-09-03T10:44:55;11.60;;;7.72;;
64515;SDS011;50891;37.380;-122.076;2022-09-03T10:50:54;12.38;;;7.80;;
64515;SDS011;50891;37.380;-122.076;2022-09-03T10:53:32;12.63;;;7.80;;
64515;SDS011;50891;37.380;-122.076;2022-09-03T10:56:24;12.27;;;8.07;;
64515;SDS011;50891;37.380;-122.076;2022-09-03T10:59:04;12.95;;;8.05;;
64515;SDS011;50891;37.380;-122.076;2022-09-03T11:01:45;12.25;;;8.40;;
64515;SDS011;50891;37.380;-122.076;2022-09-03T11:04:37;12.27;;;8.27;;
64515;SDS011;50891;37.380;-122.076;2022-09-03T11:07:11;12.75;;;8.27;;
64515;SDS011;50891;37.380;-122.076;2022-09-03T11:12:26;13.38;;;8.20;;
64515;SDS011;50891;37.380;-122.076;2022-09-03T11:17:39;14.52;;;8.70;;
64515;SDS011;50891;37.380;-122.076;2022-09-03T11:20:21;13.30;;;8.68;;
64515;SDS011;50891;37.380;-122.076;2022-09-03T11:22:50;14.25;;;9.10;;
64515;SDS011;50891;37.380;-122.076;2022-09-03T11:25:21;14.10;;;8.80;;
64515;SDS011;50891;37.380;-122.076;2022-09-03T11:33:40;15.25;;;9.23;;
64515;SDS011;50891;37.380;-122.076;2022-09-03T11:36:11;14.02;;;9.30;;
64515;SDS011;50891;37.380;-122.076;2022-09-03T11:38:38;14.27;;;9.55;;
64515;SDS011;50891;37.380;-122.076;2022-09-03T11:43:39;14.68;;;9.52;;
64515;SDS011;50891;37.380;-122.076;2022-09-03T11:46:11;14.88;;;9.55;;
64515;SDS011;50891;37.380;-122.076;2022-09-03T11:48:48;15.13;;;9.88;;
64515;SDS011;50891;37.380;-122.076;2022-09-03T11:54:00;14.27;;;9.50;;
64515;SDS011;50891;37.380;-122.076;2022-09-03T11:56:33;16.00;;;9.70;;
64515;SDS011;50891;37.380;-122.076;2022-09-03T12:01:42;14.90;;;10.32;;
64515;SDS011;50891;37.380;-122.076;2022-09-03T12:04:18;15.23;;;10.30;;
64515;SDS011;50891;37.380;-122.076;2022-09-03T12:09:51;15.18;;;10.18;;
64515;SDS011;50891;37.380;-122.076;2022-09-03T12:20:34;16.55;;;10.27;;
64515;SDS011;50891;37.380;-122.076;2022-09-03T12:23:00;14.68;;;10.20;;
64515;SDS011;50891;37.380;-122.076;2022-09-03T12:25:27;15.45;;;9.82;;
64515;SDS011;50891;37.380;-122.076;2022-09-03T12:27:53;14.77;;;10.35;;
64515;SDS011;50891;37.380;-122.076;2022-09-03T12:30:21;15.60;;;10.40;;
64515;SDS011;50891;37.380;-122.076;2022-09-03T12:32:49;16.83;;;9.95;;
64515;SDS011;50891;37.380;-122.076;2022-09-03T12:35:20;16.25;;;10.40;;
64515;SDS011;50891;37.380;-122.076;2022-09-03T12:37:50;15.05;;;10.20;;
64515;SDS011;50891;37.380;-122.076;2022-09-03T12:40:18;15.40;;;10.10;;
64515;SDS011;50891;37.380;-122.076;2022-09-03T12:42:47;15.27;;;10.40;;
64515;SDS011;50891;37.380;-122.076;2022-09-03T12:45:14;14.05;;;10.30;;
64515;SDS011;50891;37.380;-122.076;2022-09-03T12:47:47;16.70;;;10.23;;
64515;SDS011;50891;37.380;-122.076;2022-09-03T12:50:18;15.77;;;10.57;;
64515;SDS011;50891;37.380;-122.076;2022-09-03T12:52:48;15.13;;;10.13;;
64515;SDS011;50891;37.380;-122.076;2022-09-03T12:55:32;15.35;;;10.30;;
64515;SDS011;50891;37.380;-122.076;2022-09-03T12:58:12;14.45;;;9.75;;
64515;SDS011;50891;37.380;-122.076;2022-09-03T13:00:45;13.90;;;10.20;;
64515;SDS011;50891;37.380;-122.076;2022-09-03T13:03:29;16.45;;;9.98;;
64515;SDS011;50891;37.380;-122.076;2022-09-03T13:06:13;13.50;;;9.80;;
64515;SDS011;50891;37.380;-122.076;2022-09-03T13:08:45;13.82;;;9.85;;
64515;SDS011;50891;37.380;-122.076;2022-09-03T13:11:19;15.73;;;10.30;;
64515;SDS011;50891;37.380;-122.076;2022-09-03T13:13:55;14.00;;;10.15;;
64515;SDS011;50891;37.380;-122.076;2022-09-03T13:19:36;15.77;;;10.05;;
64515;SDS011;50891;37.380;-122.076;2022-09-03T13:26:08;16.02;;;9.63;;
64515;SDS011;50891;37.380;-122.076;2022-09-03T13:28:26;15.55;;;10.30;;
64515;SDS011;50891;37.380;-122.076;2022-09-03T13:33:33;14.25;;;9.68;;
64515;SDS011;50891;37.380;-122.076;2022-09-03T13:41:37;14.27;;;9.52;;
64515;SDS011;50891;37.380;-122.076;2022-09-03T13:47:07;13.95;;;9.50;;
64515;SDS011;50891;37.380;-122.076;2022-09-03T13:49:48;14.48;;;9.27;;
64515;SDS011;50891;37.380;-122.076;2022-09-03T13:55:17;14.20;;;9.00;;
64515;SDS011;50891;37.380;-122.076;2022-09-03T14:12:42;13.02;;;9.02;;
64515;SDS011;50891;37.380;-122.076;2022-09-03T14:17:59;13.95;;;8.82;;
64515;SDS011;50891;37.380;-122.076;2022-09-03T14:20:58;14.95;;;9.18;;
64515;SDS011;50891;37.380;-122.076;2022-09-03T14:23:39;13.48;;;8.70;;
64515;SDS011;50891;37.380;-122.076;2022-09-03T14:26:55;12.70;;;8.70;;
64515;SDS011;50891;37.380;-122.076;2022-09-03T14:36:57;11.80;;;8.67;;
64515;SDS011;50891;37.380;-122.076;2022-09-03T14:39:54;11.90;;;8.35;;
64515;SDS011;50891;37.380;-122.076;2022-09-03T14:45:17;13.50;;;8.57;;
64515;SDS011;50891;37.380;-122.076;2022-09-03T14:56:48;13.45;;;8.63;;
64515;SDS011;50891;37.380;-122.076;2022-09-03T14:59:33;12.65;;;8.18;;
64515;SDS011;50891;37.380;-122.076;2022-09-03T15:08:07;14.50;;;8.70;;
64515;SDS011;50891;37.380;-122.076;2022-09-03T15:10:46;13.75;;;8.20;;
64515;SDS011;50891;37.380;-122.076;2022-09-03T15:13:33;13.13;;;8.40;;
64515;SDS011;50891;37.380;-122.076;2022-09-03T15:27:17;13.50;;;8.27;;
64515;SDS011;50891;37.380;-122.076;2022-09-03T15:29:56;13.85;;;8.10;;
64515;SDS011;50891;37.380;-122.076;2022-09-03T15:32:45;14.23;;;8.38;;
64515;SDS011;50891;37.380;-122.076;2022-09-03T15:38:07;13.63;;;8.27;;
64515;SDS011;50891;37.380;-122.076;2022-09-03T15:43:20;14.07;;;8.50;;
64515;SDS011;50891;37.380;-122.076;2022-09-03T15:45:53;14.13;;;8.70;;
64515;SDS011;50891;37.380;-122.076;2022-09-03T15:48:51;14.00;;;8.25;;
64515;SDS011;50891;37.380;-122.076;2022-09-03T15:51:31;15.27;;;8.32;;
64515;SDS011;50891;37.380;-122.076;2022-09-03T16:00:05;15.32;;;8.50;;
64515;SDS011;50891;37.380;-122.076;2022-09-03T16:02:44;13.03;;;8.27;;
64515;SDS011;50891;37.380;-122.076;2022-09-03T16:05:48;15.45;;;8.73;;
64515;SDS011;50891;37.380;-122.076;2022-09-03T16:08:23;15.40;;;8.50;;
64515;SDS011;50891;37.380;-122.076;2022-09-03T16:14:07;14.52;;;8.55;;
64515;SDS011;50891;37.380;-122.076;2022-09-03T16:16:46;13.35;;;8.13;;
64515;SDS011;50891;37.380;-122.076;2022-09-03T16:22:27;13.73;;;8.20;;
64515;SDS011;50891;37.380;-122.076;2022-09-03T16:25:02;13.60;;;8.25;;
64515;SDS011;50891;37.380;-122.076;2022-09-03T16:30:28;13.88;;;8.60;;
64515;SDS011;50891;37.380;-122.076;2022-09-03T16:33:24;14.23;;;8.15;;
64515;SDS011;50891;37.380;-122.076;2022-09-03T16:35:57;14.95;;;8.20;;
64515;SDS011;50891;37.380;-122.076;2022-09-03T16:38:42;14.15;;;8.07;;
64515;SDS011;50891;37.380;-122.076;2022-09-03T16:44:49;14.17;;;8.17;;
64515;SDS011;50891;37.380;-122.076;2022-09-03T16:56:14;12.70;;;8.13;;
64515;SDS011;50891;37.380;-122.076;2022-09-03T17:10:14;13.05;;;7.88;;
64515;SDS011;50891;37.380;-122.076;2022-09-03T17:13:00;14.07;;;8.48;;
64515;SDS011;50891;37.380;-122.076;2022-09-03T17:24:06;14.60;;;8.45;;
64515;SDS011;50891;37.380;-122.076;2022-09-03T17:27:11;12.80;;;7.53;;
64515;SDS011;50891;37.380;-122.076;2022-09-03T17:30:03;13.50;;;8.00;;
64515;SDS011;50891;37.380;-122.076;2022-09-03T17:50:04;14.95;;;8.15;;
64515;SDS011;50891;37.380;-122.076;2022-09-03T17:52:44;14.80;;;8.00;;
64515;SDS011;50891;37.380;-122.076;2022-09-03T17:55:16;12.57;;;7.97;;
64515;SDS011;50891;37.380;-122.076;2022-09-03T17:57:47;13.38;;;7.90;;
64515;SDS011;50891;37.380;-122.076;2022-09-03T18:00:24;13.57;;;7.88;;
64515;SDS011;50891;37.380;-122.076;2022-09-03T18:03:42;14.40;;;8.02;;
64515;SDS011;50891;37.380;-122.076;2022-09-03T18:06:05;12.73;;;7.72;;
64515;SDS011;50891;37.380;-122.076;2022-09-03T18:11:31;13.98;;;7.82;;
64515;SDS011;50891;37.380;-122.076;2022-09-03T18:16:58;13.60;;;7.70;;
64515;SDS011;50891;37.380;-122.076;2022-09-03T18:19:47;13.75;;;7.75;;
64515;SDS011;50891;37.380;-122.076;2022-09-03T18:22:49;13.60;;;7.40;;
64515;SDS011;50891;37.380;-122.076;2022-09-03T18:25:41;13.30;;;7.77;;
64515;SDS011;50891;37.380;-122.076;2022-09-03T18:28:52;13.73;;;8.00;;
64515;SDS011;50891;37.380;-122.076;2022-09-03T18:31:55;14.50;;;8.10;;
64515;SDS011;50891;37.380;-122.076;2022-09-03T18:34:39;12.50;;;7.90;;
64515;SDS011;50891;37.380;-122.076;2022-09-03T18:37:25;13.95;;;7.80;;
64515;SDS011;50891;37.380;-122.076;2022-09-03T18:40:13;13.68;;;8.30;;
64515;SDS011;50891;37.380;-122.076;2022-09-03T18:46:14;14.57;;;7.78;;
64515;SDS011;50891;37.380;-122.076;2022-09-03T18:52:14;14.82;;;7.85;;
64515;SDS011;50891;37.380;-122.076;2022-09-03T19:01:05;13.43;;;7.90;;
64515;SDS011;50891;37.380;-122.076;2022-09-03T19:07:22;13.23;;;7.50;;
64515;SDS011;50891;37.380;-122.076;2022-09-03T19:13:32;13.75;;;7.53;;
64515;SDS011;50891;37.380;-122.076;2022-09-03T19:22:42;13.18;;;7.20;;
64515;SDS011;50891;37.380;-122.076;2022-09-03T19:25:27;13.47;;;7.40;;
64515;SDS011;50891;37.380;-122.076;2022-09-03T19:28:14;14.32;;;7.82;;